createdAt,value
2022-12-27T11:40:25.822Z,95003.00
2022-12-27T11:44:32.073Z,95013.00
2022-12-27T11:48:42.723Z,95015.00
2022-12-27T11:53:30.330Z,95008.00
2022-12-27T11:57:56.783Z,95018.00
2022-12-27T12:02:17.487Z,95012.00
2022-12-27T12:07:15.270Z,94991.00
2022-12-27T12:11:55.321Z,95015.00
2022-12-27T12:16:19.671Z,94991.00
2022-12-27T12:21:24.158Z,95008.00
2022-12-27T12:25:51.386Z,94988.00
2022-12-27T12:30:27.649Z,94986.00
2022-12-27T12:34:52.065Z,94984.00
2022-12-27T12:39:49.310Z,94988.00
2022-12-27T12:44:18.252Z,94978.00
2022-12-27T12:49:03.851Z,94981.00
2022-12-27T12:53:57.129Z,94978.00
2022-12-27T12:58:35.160Z,94969.00
2022-12-27T13:03:14.427Z,94973.00
2022-12-27T13:07:52.521Z,94964.00
2022-12-27T13:11:59.192Z,94949.00
2022-12-27T13:16:30.701Z,94975.00
2022-12-27T13:21:00.347Z,94965.00
2022-12-27T13:25:35.191Z,94967.00
2022-12-27T13:30:16.265Z,94969.00
2022-12-27T13:34:49.519Z,94974.00
2022-12-27T13:39:28.989Z,94984.00
2022-12-27T13:44:09.662Z,94963.00
2022-12-27T13:49:04.389Z,94965.00
2022-12-27T13:53:25.875Z,94968.00
2022-12-27T13:57:52.891Z,94977.00
2022-12-27T14:02:34.653Z,94979.00
2022-12-27T14:07:01.571Z,94990.00
2022-12-27T14:11:37.626Z,94981.00
2022-12-27T14:16:06.578Z,95000.00
2022-12-27T14:20:18.549Z,94991.00
2022-12-27T14:25:03.670Z,94989.00
2022-12-27T14:29:57.670Z,94989.00
2022-12-27T14:34:02.553Z,94996.00
2022-12-27T14:38:07.862Z,94994.00
2022-12-27T14:42:35.435Z,94999.00
2022-12-27T14:46:40.805Z,95012.00
2022-12-27T14:51:01.343Z,95019.00
2022-12-27T14:55:35.928Z,95017.00
2022-12-27T14:59:40.774Z,95013.00
2022-12-27T15:04:22.494Z,95009.00
2022-12-27T15:09:18.190Z,95004.00
2022-12-27T15:13:29.069Z,95010.00
2022-12-27T15:17:40.362Z,95018.00
2022-12-27T15:22:19.959Z,95016.00
2022-12-27T15:26:47.529Z,95015.00
2022-12-27T15:31:03.944Z,95024.00
2022-12-27T15:35:44.966Z,95020.00
2022-12-27T15:39:48.224Z,95015.00
2022-12-27T15:44:06.841Z,95014.00
2022-12-27T15:48:11.996Z,95023.00
2022-12-27T15:52:44.268Z,95032.00
2022-12-27T15:56:57.205Z,95039.00
2022-12-27T16:01:27.281Z,95041.00
2022-12-27T16:05:52.812Z,95038.00
2022-12-27T16:09:59.076Z,95035.00
2022-12-27T16:14:31.756Z,95043.00
2022-12-27T16:18:53.587Z,95043.00
2022-12-27T16:22:58.224Z,95036.00
2022-12-27T16:27:04.989Z,95059.00
2022-12-27T16:31:12.141Z,95055.00
2022-12-27T16:35:16.364Z,95052.00
2022-12-27T16:39:24.717Z,95052.00
2022-12-27T16:44:01.382Z,95065.00
2022-12-27T16:48:28.101Z,95067.00
2022-12-27T16:53:14.051Z,95073.00
2022-12-27T16:57:56.296Z,95073.00
2022-12-27T17:02:31.818Z,95074.00
2022-12-27T17:06:37.827Z,95058.00
2022-12-27T17:10:47.561Z,95059.00
2022-12-27T17:15:18.086Z,95055.00
2022-12-27T17:19:40.834Z,95044.00
2022-12-27T17:23:49.047Z,95055.00
2022-12-27T17:28:25.938Z,95043.00
2022-12-27T18:01:33.301Z,95051.00
2022-12-27T18:05:43.871Z,95026.00
2022-12-27T18:46:05.407Z,95011.00
2022-12-27T19:08:20.174Z,95017.00
2022-12-27T19:28:10.421Z,95012.00
2022-12-27T19:32:12.543Z,94999.00
2022-12-27T19:36:15.090Z,95009.00
2022-12-27T19:40:20.546Z,94994.00
2022-12-27T19:44:25.603Z,95008.00
2022-12-27T19:48:30.249Z,95028.00
2022-12-27T19:52:32.821Z,95024.00
2022-12-27T19:56:38.682Z,95006.00
2022-12-27T20:00:40.648Z,95023.00
2022-12-27T20:04:44.949Z,95017.00
2022-12-27T20:08:50.535Z,95015.00
2022-12-27T20:13:00.405Z,95004.00
2022-12-27T20:17:05.747Z,95006.00
2022-12-27T20:21:13.224Z,95021.00
2022-12-27T20:25:20.704Z,95018.00
2022-12-27T20:29:23.989Z,95014.00
2022-12-27T20:33:54.435Z,95023.00
2022-12-27T20:37:56.458Z,95016.00
2022-12-27T20:48:17.488Z,95017.00
2022-12-27T20:52:19.481Z,95014.00
2022-12-27T20:56:46.836Z,95016.00
2022-12-27T21:00:51.870Z,95008.00
2022-12-27T21:05:09.244Z,95013.00
2022-12-27T21:09:15.827Z,95022.00
2022-12-27T21:13:18.536Z,95015.00
2022-12-27T21:17:21.400Z,95028.00
2022-12-27T21:21:42.711Z,95029.00
2022-12-27T21:25:44.727Z,95024.00
2022-12-27T21:29:52.086Z,95018.00
2022-12-27T21:33:54.034Z,95018.00
2022-12-27T21:38:07.562Z,95018.00
2022-12-27T21:42:09.740Z,95015.00
2022-12-27T21:46:23.706Z,95014.00
2022-12-27T21:50:52.460Z,95006.00
2022-12-27T21:54:55.007Z,95008.00
2022-12-27T21:59:05.892Z,95004.00
2022-12-27T22:03:08.668Z,95008.00
2022-12-27T22:07:10.733Z,95011.00
2022-12-27T22:11:25.071Z,95013.00
2022-12-27T22:15:27.043Z,95005.00
2022-12-27T22:19:31.309Z,95001.00
2022-12-27T22:23:34.818Z,95000.00
2022-12-27T22:27:36.845Z,95000.00
2022-12-27T22:31:40.357Z,95001.00
2022-12-27T22:35:42.496Z,95001.00
2022-12-27T22:39:44.492Z,94997.00
2022-12-27T22:44:11.425Z,95002.00
2022-12-27T22:48:13.723Z,95002.00
2022-12-27T22:52:19.909Z,94995.00
2022-12-27T22:56:40.242Z,94995.00
2022-12-27T23:00:43.918Z,94990.00
2022-12-27T23:04:46.215Z,94988.00
2022-12-27T23:08:49.809Z,94965.00
2022-12-27T23:12:52.028Z,94972.00
2022-12-27T23:16:55.500Z,94963.00
2022-12-27T23:21:20.785Z,94957.00
2022-12-27T23:25:46.889Z,94959.00
2022-12-27T23:30:15.391Z,94954.00
2022-12-27T23:34:19.287Z,94945.00
2022-12-27T23:38:26.814Z,94953.00
2022-12-27T23:42:28.805Z,94932.00
2022-12-27T23:46:35.058Z,94926.00
2022-12-27T23:50:42.995Z,94924.00
2022-12-27T23:54:44.939Z,94912.00
2022-12-27T23:58:47.716Z,94922.00
